sensor_id;sensor_type;location;lat;lon;timestamp;temperature;humidity
59067;DHT22;44854;50.838;4.438;2023-01-29T05:24:20;0.40;99.90
59067;DHT22;44854;50.838;4.438;2023-01-29T05:26:46;0.50;99.90
59067;DHT22;44854;50.838;4.438;2023-01-29T05:29:31;0.40;99.90
59067;DHT22;44854;50.838;4.438;2023-01-29T05:31:56;0.40;99.90
59067;DHT22;44854;50.838;4.438;2023-01-29T05:34:22;0.60;99.90
59067;DHT22;44854;50.838;4.438;2023-01-29T05:36:48;0.70;99.90
59067;DHT22;44854;50.838;4.438;2023-01-29T05:39:13;0.80;99.90
59067;DHT22;44854;50.838;4.438;2023-01-29T05:41:39;0.90;99.90
59067;DHT22;44854;50.838;4.438;2023-01-29T05:44:04;0.90;99.90
59067;DHT22;44854;50.838;4.438;2023-01-29T05:46:30;0.90;99.90
59067;DHT22;44854;50.838;4.438;2023-01-29T05:48:56;1.00;99.90
59067;DHT22;44854;50.838;4.438;2023-01-29T05:51:21;0.90;99.90
59067;DHT22;44854;50.838;4.438;2023-01-29T05:53:47;0.90;99.90
59067;DHT22;44854;50.838;4.438;2023-01-29T05:56:12;0.90;99.90
59067;DHT22;44854;50.838;4.438;2023-01-29T05:58:38;1.00;99.90
59067;DHT22;44854;50.838;4.438;2023-01-29T06:01:10;1.10;99.90
59067;DHT22;44854;50.838;4.438;2023-01-29T06:03:36;1.10;99.90
59067;DHT22;44854;50.838;4.438;2023-01-29T06:06:01;1.20;99.90
59067;DHT22;44854;50.838;4.438;2023-01-29T06:08:27;1.20;99.90
59067;DHT22;44854;50.838;4.438;2023-01-29T06:10:52;1.30;99.90
59067;DHT22;44854;50.838;4.438;2023-01-29T06:13:18;1.30;99.90
59067;DHT22;44854;50.838;4.438;2023-01-29T06:15:44;1.40;99.90
59067;DHT22;44854;50.838;4.438;2023-01-29T06:18:09;1.40;99.90
59067;DHT22;44854;50.838;4.438;2023-01-29T06:20:35;1.50;99.90
59067;DHT22;44854;50.838;4.438;2023-01-29T06:23:01;1.60;99.90
59067;DHT22;44854;50.838;4.438;2023-01-29T06:25:26;1.60;99.90
59067;DHT22;44854;50.838;4.438;2023-01-29T06:27:52;1.80;99.90
59067;DHT22;44854;50.838;4.438;2023-01-29T06:30:17;1.70;99.90
59067;DHT22;44854;50.838;4.438;2023-01-29T06:32:43;1.70;99.90
59067;DHT22;44854;50.838;4.438;2023-01-29T06:35:08;1.70;99.90
59067;DHT22;44854;50.838;4.438;2023-01-29T06:37:35;1.70;99.90
59067;DHT22;44854;50.838;4.438;2023-01-29T06:40:01;1.70;99.90
59067;DHT22;44854;50.838;4.438;2023-01-29T06:42:26;1.60;99.90
59067;DHT22;44854;50.838;4.438;2023-01-29T06:44:55;1.70;99.90
59067;DHT22;44854;50.838;4.438;2023-01-29T06:47:21;1.70;99.90
59067;DHT22;44854;50.838;4.438;2023-01-29T06:49:47;1.80;99.90
59067;DHT22;44854;50.838;4.438;2023-01-29T06:52:12;1.90;99.90
59067;DHT22;44854;50.838;4.438;2023-01-29T06:54:38;1.90;99.90
59067;DHT22;44854;50.838;4.438;2023-01-29T06:57:03;1.90;99.90
59067;DHT22;44854;50.838;4.438;2023-01-29T06:59:29;1.90;99.90
59067;DHT22;44854;50.838;4.438;2023-01-29T07:01:54;2.00;99.90
59067;DHT22;44854;50.838;4.438;2023-01-29T07:04:20;2.10;99.90
59067;DHT22;44854;50.838;4.438;2023-01-29T07:06:45;2.10;99.90
59067;DHT22;44854;50.838;4.438;2023-01-29T07:09:11;2.10;99.90
59067;DHT22;44854;50.838;4.438;2023-01-29T07:11:38;2.00;99.90
59067;DHT22;44854;50.838;4.438;2023-01-29T07:14:04;2.00;99.90
59067;DHT22;44854;50.838;4.438;2023-01-29T07:16:29;1.80;99.90
59067;DHT22;44854;50.838;4.438;2023-01-29T07:18:55;1.90;99.90
59067;DHT22;44854;50.838;4.438;2023-01-29T07:21:21;2.00;99.90
59067;DHT22;44854;50.838;4.438;2023-01-29T07:23:47;2.20;99.90
59067;DHT22;44854;50.838;4.438;2023-01-29T07:26:12;2.10;99.90
59067;DHT22;44854;50.838;4.438;2023-01-29T07:28:38;2.10;99.90
59067;DHT22;44854;50.838;4.438;2023-01-29T07:31:04;2.20;99.90
59067;DHT22;44854;50.838;4.438;2023-01-29T07:33:30;2.20;99.90
59067;DHT22;44854;50.838;4.438;2023-01-29T07:35:55;2.30;99.90
59067;DHT22;44854;50.838;4.438;2023-01-29T07:38:21;2.30;99.90
59067;DHT22;44854;50.838;4.438;2023-01-29T07:40:47;2.30;99.90
59067;DHT22;44854;50.838;4.438;2023-01-29T07:43:13;2.30;99.90
59067;DHT22;44854;50.838;4.438;2023-01-29T07:45:38;2.40;99.90
59067;DHT22;44854;50.838;4.438;2023-01-29T07:48:05;2.40;99.90
59067;DHT22;44854;50.838;4.438;2023-01-29T07:50:32;2.40;99.90
59067;DHT22;44854;50.838;4.438;2023-01-29T07:52:58;2.40;99.90
59067;DHT22;44854;50.838;4.438;2023-01-29T07:55:23;2.20;99.90
59067;DHT22;44854;50.838;4.438;2023-01-29T07:57:56;2.30;99.90
59067;DHT22;44854;50.838;4.438;2023-01-29T08:00:21;2.30;99.90
59067;DHT22;44854;50.838;4.438;2023-01-29T08:02:50;2.40;99.90
59067;DHT22;44854;50.838;4.438;2023-01-29T08:05:15;2.40;99.90
59067;DHT22;44854;50.838;4.438;2023-01-29T08:07:41;2.60;99.90
59067;DHT22;44854;50.838;4.438;2023-01-29T08:10:07;2.60;99.90
59067;DHT22;44854;50.838;4.438;2023-01-29T08:12:35;2.60;99.90
59067;DHT22;44854;50.838;4.438;2023-01-29T08:15:01;2.70;99.90
59067;DHT22;44854;50.838;4.438;2023-01-29T08:17:26;2.70;99.90
59067;DHT22;44854;50.838;4.438;2023-01-29T08:19:52;2.80;99.90
59067;DHT22;44854;50.838;4.438;2023-01-29T08:22:17;2.90;99.90
59067;DHT22;44854;50.838;4.438;2023-01-29T08:24:43;3.00;99.90
59067;DHT22;44854;50.838;4.438;2023-01-29T08:27:08;3.00;99.90
59067;DHT22;44854;50.838;4.438;2023-01-29T08:29:34;3.10;99.90
59067;DHT22;44854;50.838;4.438;2023-01-29T08:32:02;3.10;99.90
59067;DHT22;44854;50.838;4.438;2023-01-29T08:34:28;3.10;99.90
59067;DHT22;44854;50.838;4.438;2023-01-29T08:36:53;3.10;99.90
59067;DHT22;44854;50.838;4.438;2023-01-29T08:39:19;3.10;99.90
59067;DHT22;44854;50.838;4.438;2023-01-29T08:41:44;3.20;99.90
59067;DHT22;44854;50.838;4.438;2023-01-29T08:44:10;3.20;99.90
59067;DHT22;44854;50.838;4.438;2023-01-29T08:46:36;3.00;99.90
59067;DHT22;44854;50.838;4.438;2023-01-29T08:49:02;2.90;99.90
59067;DHT22;44854;50.838;4.438;2023-01-29T08:51:27;3.00;99.90
59067;DHT22;44854;50.838;4.438;2023-01-29T08:53:53;2.90;99.90
59067;DHT22;44854;50.838;4.438;2023-01-29T08:56:18;3.00;99.90
59067;DHT22;44854;50.838;4.438;2023-01-29T08:58:44;3.20;99.90
59067;DHT22;44854;50.838;4.438;2023-01-29T09:01:11;3.20;99.90
59067;DHT22;44854;50.838;4.438;2023-01-29T09:03:37;3.30;99.90
59067;DHT22;44854;50.838;4.438;2023-01-29T09:06:05;3.30;99.90
59067;DHT22;44854;50.838;4.438;2023-01-29T09:08:31;3.40;99.90
59067;DHT22;44854;50.838;4.438;2023-01-29T09:10:59;3.50;99.90
59067;DHT22;44854;50.838;4.438;2023-01-29T09:13:25;3.70;99.90
59067;DHT22;44854;50.838;4.438;2023-01-29T09:15:51;3.70;99.90
59067;DHT22;44854;50.838;4.438;2023-01-29T09:18:16;3.70;99.90
59067;DHT22;44854;50.838;4.438;2023-01-29T09:20:42;3.90;99.90
59067;DHT22;44854;50.838;4.438;2023-01-29T09:23:08;3.90;99.90
59067;DHT22;44854;50.838;4.438;2023-01-29T09:25:34;3.90;99.90
59067;DHT22;44854;50.838;4.438;2023-01-29T09:28:00;3.80;99.90
59067;DHT22;44854;50.838;4.438;2023-01-29T09:30:25;3.80;99.90
59067;DHT22;44854;50.838;4.438;2023-01-29T09:32:51;3.80;99.90
59067;DHT22;44854;50.838;4.438;2023-01-29T09:35:17;3.90;99.90
59067;DHT22;44854;50.838;4.438;2023-01-29T09:37:46;3.90;99.90
59067;DHT22;44854;50.838;4.438;2023-01-29T09:43:06;3.80;99.90
59067;DHT22;44854;50.838;4.438;2023-01-29T09:45:32;3.90;99.90
59067;DHT22;44854;50.838;4.438;2023-01-29T09:47:59;4.00;99.90
59067;DHT22;44854;50.838;4.438;2023-01-29T09:50:36;4.10;99.90
59067;DHT22;44854;50.838;4.438;2023-01-29T09:53:28;4.10;99.90
59067;DHT22;44854;50.838;4.438;2023-01-29T09:55:55;4.10;99.90
59067;DHT22;44854;50.838;4.438;2023-01-29T10:03:40;4.30;99.90
59067;DHT22;44854;50.838;4.438;2023-01-29T10:25:02;4.30;99.90
59067;DHT22;44854;50.838;4.438;2023-01-29T10:27:31;4.30;99.90
59067;DHT22;44854;50.838;4.438;2023-01-29T10:29:58;4.30;99.90
59067;DHT22;44854;50.838;4.438;2023-01-29T10:32:24;4.40;99.90
59067;DHT22;44854;50.838;4.438;2023-01-29T10:34:52;4.50;99.90
59067;DHT22;44854;50.838;4.438;2023-01-29T10:37:24;4.60;99.90
59067;DHT22;44854;50.838;4.438;2023-01-29T10:39:50;4.60;99.90
59067;DHT22;44854;50.838;4.438;2023-01-29T10:45:08;4.60;99.90
59067;DHT22;44854;50.838;4.438;2023-01-29T10:52:47;4.80;99.90
59067;DHT22;44854;50.838;4.438;2023-01-29T11:00:23;5.00;99.90
59067;DHT22;44854;50.838;4.438;2023-01-29T11:02:50;4.80;99.90
59067;DHT22;44854;50.838;4.438;2023-01-29T11:05:22;4.90;99.90
59067;DHT22;44854;50.838;4.438;2023-01-29T11:07:51;4.90;99.90
59067;DHT22;44854;50.838;4.438;2023-01-29T11:10:20;4.90;99.90
59067;DHT22;44854;50.838;4.438;2023-01-29T11:12:46;4.80;99.90
59067;DHT22;44854;50.838;4.438;2023-01-29T11:15:18;4.90;99.90
59067;DHT22;44854;50.838;4.438;2023-01-29T11:18:03;5.00;99.90
59067;DHT22;44854;50.838;4.438;2023-01-29T11:20:30;5.00;99.90
59067;DHT22;44854;50.838;4.438;2023-01-29T11:22:56;5.00;99.90
59067;DHT22;44854;50.838;4.438;2023-01-29T11:25:22;5.00;99.90
59067;DHT22;44854;50.838;4.438;2023-01-29T11:27:52;5.00;99.90
59067;DHT22;44854;50.838;4.438;2023-01-29T11:32:47;5.10;99.90
59067;DHT22;44854;50.838;4.438;2023-01-29T11:37:40;5.20;99.90
59067;DHT22;44854;50.838;4.438;2023-01-29T11:40:27;5.00;99.90
59067;DHT22;44854;50.838;4.438;2023-01-29T11:42:52;5.10;99.90
59067;DHT22;44854;50.838;4.438;2023-01-29T11:47:43;5.00;99.90
59067;DHT22;44854;50.838;4.438;2023-01-29T11:50:17;5.10;99.90
59067;DHT22;44854;50.838;4.438;2023-01-29T11:52:44;5.10;99.90
59067;DHT22;44854;50.838;4.438;2023-01-29T11:55:25;5.10;99.90
59067;DHT22;44854;50.838;4.438;2023-01-29T11:57:52;5.30;99.90
59067;DHT22;44854;50.838;4.438;2023-01-29T12:00:25;5.20;99.90
59067;DHT22;44854;50.838;4.438;2023-01-29T12:05:21;5.20;99.90
59067;DHT22;44854;50.838;4.438;2023-01-29T12:07:48;5.40;99.90
59067;DHT22;44854;50.838;4.438;2023-01-29T12:10:30;5.50;99.90
59067;DHT22;44854;50.838;4.438;2023-01-29T12:15:38;5.70;99.90
59067;DHT22;44854;50.838;4.438;2023-01-29T12:20:40;5.70;99.90
59067;DHT22;44854;50.838;4.438;2023-01-29T12:28:22;5.50;99.90
59067;DHT22;44854;50.838;4.438;2023-01-29T12:38:54;5.60;99.90
59067;DHT22;44854;50.838;4.438;2023-01-29T12:41:27;5.60;99.90
59067;DHT22;44854;50.838;4.438;2023-01-29T12:44:00;5.60;99.90
59067;DHT22;44854;50.838;4.438;2023-01-29T12:46:30;5.50;99.90
59067;DHT22;44854;50.838;4.438;2023-01-29T12:48:59;5.70;99.90
59067;DHT22;44854;50.838;4.438;2023-01-29T12:51:34;5.60;99.90
59067;DHT22;44854;50.838;4.438;2023-01-29T12:56:35;5.70;99.90
59067;DHT22;44854;50.838;4.438;2023-01-29T12:59:36;5.60;99.90
59067;DHT22;44854;50.838;4.438;2023-01-29T13:01:55;5.70;99.90
59067;DHT22;44854;50.838;4.438;2023-01-29T13:04:29;5.80;99.90
59067;DHT22;44854;50.838;4.438;2023-01-29T13:07:01;5.70;99.90
59067;DHT22;44854;50.838;4.438;2023-01-29T13:09:29;5.70;99.90
59067;DHT22;44854;50.838;4.438;2023-01-29T13:12:15;5.70;99.90
59067;DHT22;44854;50.838;4.438;2023-01-29T13:20:12;6.00;99.90
59067;DHT22;44854;50.838;4.438;2023-01-29T13:22:39;6.00;99.90
59067;DHT22;44854;50.838;4.438;2023-01-29T13:25:05;5.80;99.90
59067;DHT22;44854;50.838;4.438;2023-01-29T13:27:35;5.70;99.90
59067;DHT22;44854;50.838;4.438;2023-01-29T13:30:02;5.70;99.90
59067;DHT22;44854;50.838;4.438;2023-01-29T13:32:28;5.80;99.90
59067;DHT22;44854;50.838;4.438;2023-01-29T13:34:56;5.80;99.90
59067;DHT22;44854;50.838;4.438;2023-01-29T13:39:53;6.00;99.90
59067;DHT22;44854;50.838;4.438;2023-01-29T13:45:06;6.00;99.90
59067;DHT22;44854;50.838;4.438;2023-01-29T13:47:33;6.10;99.90
59067;DHT22;44854;50.838;4.438;2023-01-29T13:50:04;6.00;99.90
59067;DHT22;44854;50.838;4.438;2023-01-29T13:57:51;5.90;99.90
59067;DHT22;44854;50.838;4.438;2023-01-29T14:13:48;5.70;99.90
59067;DHT22;44854;50.838;4.438;2023-01-29T14:18:56;5.70;99.90
59067;DHT22;44854;50.838;4.438;2023-01-29T14:21:26;5.80;99.90
59067;DHT22;44854;50.838;4.438;2023-01-29T14:23:56;5.80;99.90
59067;DHT22;44854;50.838;4.438;2023-01-29T14:26:23;5.80;99.90
59067;DHT22;44854;50.838;4.438;2023-01-29T14:29:00;5.90;99.90
59067;DHT22;44854;50.838;4.438;2023-01-29T14:34:17;5.70;99.90
59067;DHT22;44854;50.838;4.438;2023-01-29T14:36:44;5.60;99.90
59067;DHT22;44854;50.838;4.438;2023-01-29T14:41:55;5.90;99.90
59067;DHT22;44854;50.838;4.438;2023-01-29T14:47:07;6.00;99.90
59067;DHT22;44854;50.838;4.438;2023-01-29T14:49:57;6.00;99.90
59067;DHT22;44854;50.838;4.438;2023-01-29T14:52:25;6.10;99.90
59067;DHT22;44854;50.838;4.438;2023-01-29T14:54:52;6.10;99.90
59067;DHT22;44854;50.838;4.438;2023-01-29T14:57:21;5.90;99.90
59067;DHT22;44854;50.838;4.438;2023-01-29T14:59:57;5.90;99.90
59067;DHT22;44854;50.838;4.438;2023-01-29T15:02:27;5.80;99.90
59067;DHT22;44854;50.838;4.438;2023-01-29T15:05:01;5.80;99.90
59067;DHT22;44854;50.838;4.438;2023-01-29T15:09:59;5.50;99.90
59067;DHT22;44854;50.838;4.438;2023-01-29T15:20:25;5.50;99.90
59067;DHT22;44854;50.838;4.438;2023-01-29T15:22:51;5.60;99.90
59067;DHT22;44854;50.838;4.438;2023-01-29T15:25:16;5.60;99.90
59067;DHT22;44854;50.838;4.438;2023-01-29T15:27:44;5.50;99.90
59067;DHT22;44854;50.838;4.438;2023-01-29T15:30:13;5.40;99.90
59067;DHT22;44854;50.838;4.438;2023-01-29T15:32:39;5.20;99.90
59067;DHT22;44854;50.838;4.438;2023-01-29T15:35:09;5.50;99.90
59067;DHT22;44854;50.838;4.438;2023-01-29T15:37:35;5.30;99.90
59067;DHT22;44854;50.838;4.438;2023-01-29T15:40:02;5.40;99.90
59067;DHT22;44854;50.838;4.438;2023-01-29T15:42:28;5.40;99.90
59067;DHT22;44854;50.838;4.438;2023-01-29T15:44:54;5.40;99.90
59067;DHT22;44854;50.838;4.438;2023-01-29T15:47:22;5.40;99.90
59067;DHT22;44854;50.838;4.438;2023-01-29T15:49:49;5.40;99.90
59067;DHT22;44854;50.838;4.438;2023-01-29T15:52:19;5.30;99.90
59067;DHT22;44854;50.838;4.438;2023-01-29T15:54:46;5.20;99.90
59067;DHT22;44854;50.838;4.438;2023-01-29T15:57:14;5.30;99.90
59067;DHT22;44854;50.838;4.438;2023-01-29T15:59:42;5.30;99.90
59067;DHT22;44854;50.838;4.438;2023-01-29T16:02:19;5.30;99.90
59067;DHT22;44854;50.838;4.438;2023-01-29T16:04:45;5.30;99.90
59067;DHT22;44854;50.838;4.438;2023-01-29T16:07:11;5.30;99.90
59067;DHT22;44854;50.838;4.438;2023-01-29T16:09:37;5.30;99.90
59067;DHT22;44854;50.838;4.438;2023-01-29T16:12:02;5.20;99.90
59067;DHT22;44854;50.838;4.438;2023-01-29T16:14:28;5.20;99.90
59067;DHT22;44854;50.838;4.438;2023-01-29T16:16:54;5.20;99.90
59067;DHT22;44854;50.838;4.438;2023-01-29T16:21:45;5.00;99.90
59067;DHT22;44854;50.838;4.438;2023-01-29T16:24:14;5.00;99.90
59067;DHT22;44854;50.838;4.438;2023-01-29T16:26:47;5.10;99.90
59067;DHT22;44854;50.838;4.438;2023-01-29T16:29:13;5.10;99.90
59067;DHT22;44854;50.838;4.438;2023-01-29T16:31:40;5.00;99.90
59067;DHT22;44854;50.838;4.438;2023-01-29T16:34:08;5.00;99.90
59067;DHT22;44854;50.838;4.438;2023-01-29T16:36:34;4.90;99.90
59067;DHT22;44854;50.838;4.438;2023-01-29T16:39:00;4.80;99.90
59067;DHT22;44854;50.838;4.438;2023-01-29T16:41:33;4.80;99.90
59067;DHT22;44854;50.838;4.438;2023-01-29T16:44:25;4.90;99.90
59067;DHT22;44854;50.838;4.438;2023-01-29T16:46:48;4.90;99.90
59067;DHT22;44854;50.838;4.438;2023-01-29T16:51:55;4.70;99.90
59067;DHT22;44854;50.838;4.438;2023-01-29T16:54:24;4.90;99.90
59067;DHT22;44854;50.838;4.438;2023-01-29T16:56:51;4.90;99.90
59067;DHT22;44854;50.838;4.438;2023-01-29T16:59:17;4.90;99.90
59067;DHT22;44854;50.838;4.438;2023-01-29T17:01:44;4.70;99.90
59067;DHT22;44854;50.838;4.438;2023-01-29T17:04:12;4.70;99.90
59067;DHT22;44854;50.838;4.438;2023-01-29T17:06:39;4.70;99.90
59067;DHT22;44854;50.838;4.438;2023-01-29T17:09:06;4.70;99.90
59067;DHT22;44854;50.838;4.438;2023-01-29T17:11:33;4.80;99.90
59067;DHT22;44854;50.838;4.438;2023-01-29T17:14:00;4.80;99.90
59067;DHT22;44854;50.838;4.438;2023-01-29T17:16:27;4.90;99.90
59067;DHT22;44854;50.838;4.438;2023-01-29T17:18:53;5.00;99.90
59067;DHT22;44854;50.838;4.438;2023-01-29T17:21:19;4.90;99.90
59067;DHT22;44854;50.838;4.438;2023-01-29T17:23:46;4.90;99.90
59067;DHT22;44854;50.838;4.438;2023-01-29T17:26:12;4.90;99.90
59067;DHT22;44854;50.838;4.438;2023-01-29T17:28:38;4.80;99.90
59067;DHT22;44854;50.838;4.438;2023-01-29T17:31:04;4.90;99.90
59067;DHT22;44854;50.838;4.438;2023-01-29T17:33:32;4.90;99.90
59067;DHT22;44854;50.838;4.438;2023-01-29T17:35:58;4.90;99.90
59067;DHT22;44854;50.838;4.438;2023-01-29T17:38:23;5.10;99.90
59067;DHT22;44854;50.838;4.438;2023-01-29T17:43:21;5.10;99.90
59067;DHT22;44854;50.838;4.438;2023-01-29T17:45:46;5.10;99.90
59067;DHT22;44854;50.838;4.438;2023-01-29T17:50:41;5.10;99.90
59067;DHT22;44854;50.838;4.438;2023-01-29T17:53:07;5.10;99.90
59067;DHT22;44854;50.838;4.438;2023-01-29T17:55:33;5.00;99.90
59067;DHT22;44854;50.838;4.438;2023-01-29T17:57:59;4.90;99.90
59067;DHT22;44854;50.838;4.438;2023-01-29T18:00:24;4.80;99.90
59067;DHT22;44854;50.838;4.438;2023-01-29T18:02:50;4.70;99.90
59067;DHT22;44854;50.838;4.438;2023-01-29T18:05:16;4.80;99.90
59067;DHT22;44854;50.838;4.438;2023-01-29T18:07:42;4.90;99.90
59067;DHT22;44854;50.838;4.438;2023-01-29T18:10:10;5.00;99.90
59067;DHT22;44854;50.838;4.438;2023-01-29T18:12:37;5.10;99.90
59067;DHT22;44854;50.838;4.438;2023-01-29T18:15:02;5.20;99.90
59067;DHT22;44854;50.838;4.438;2023-01-29T18:17:28;5.10;99.90
59067;DHT22;44854;50.838;4.438;2023-01-29T18:19:53;4.90;99.90
59067;DHT22;44854;50.838;4.438;2023-01-29T18:22:20;4.80;99.90
59067;DHT22;44854;50.838;4.438;2023-01-29T18:24:46;4.80;99.90
59067;DHT22;44854;50.838;4.438;2023-01-29T18:27:12;4.80;99.90
59067;DHT22;44854;50.838;4.438;2023-01-29T18:29:37;4.90;99.90
59067;DHT22;44854;50.838;4.438;2023-01-29T18:32:03;4.80;99.90
59067;DHT22;44854;50.838;4.438;2023-01-29T18:34:28;4.80;99.90
59067;DHT22;44854;50.838;4.438;2023-01-29T18:36:54;4.70;99.90
59067;DHT22;44854;50.838;4.438;2023-01-29T18:39:20;4.80;99.90
59067;DHT22;44854;50.838;4.438;2023-01-29T18:41:45;4.90;99.90
59067;DHT22;44854;50.838;4.438;2023-01-29T18:44:11;4.90;99.90
59067;DHT22;44854;50.838;4.438;2023-01-29T18:46:36;4.90;99.90
59067;DHT22;44854;50.838;4.438;2023-01-29T18:49:02;4.70;99.90
59067;DHT22;44854;50.838;4.438;2023-01-29T18:51:29;4.80;99.90
59067;DHT22;44854;50.838;4.438;2023-01-29T18:53:55;4.80;99.90
59067;DHT22;44854;50.838;4.438;2023-01-29T18:56:20;4.70;99.90
59067;DHT22;44854;50.838;4.438;2023-01-29T18:58:46;4.80;99.90
59067;DHT22;44854;50.838;4.438;2023-01-29T19:01:12;4.80;99.90
59067;DHT22;44854;50.838;4.438;2023-01-29T19:03:38;4.80;99.90
59067;DHT22;44854;50.838;4.438;2023-01-29T19:06:05;4.80;99.90
59067;DHT22;44854;50.838;4.438;2023-01-29T19:08:31;4.80;99.90
59067;DHT22;44854;50.838;4.438;2023-01-29T19:10:57;5.00;99.90
59067;DHT22;44854;50.838;4.438;2023-01-29T19:13:32;4.90;99.90
59067;DHT22;44854;50.838;4.438;2023-01-29T19:15:59;4.80;99.90
59067;DHT22;44854;50.838;4.438;2023-01-29T19:18:24;4.80;99.90
59067;DHT22;44854;50.838;4.438;2023-01-29T19:20:50;4.90;99.90
59067;DHT22;44854;50.838;4.438;2023-01-29T19:23:16;5.00;99.90
59067;DHT22;44854;50.838;4.438;2023-01-29T19:25:42;4.90;99.90
59067;DHT22;44854;50.838;4.438;2023-01-29T19:28:08;4.70;99.90
59067;DHT22;44854;50.838;4.438;2023-01-29T19:30:34;4.70;99.90
59067;DHT22;44854;50.838;4.438;2023-01-29T19:33:00;4.80;99.90
59067;DHT22;44854;50.838;4.438;2023-01-29T19:35:25;4.70;99.90
59067;DHT22;44854;50.838;4.438;2023-01-29T19:37:51;4.70;99.90
59067;DHT22;44854;50.838;4.438;2023-01-29T19:40:17;4.60;99.90
59067;DHT22;44854;50.838;4.438;2023-01-29T19:42:43;4.70;99.90
59067;DHT22;44854;50.838;4.438;2023-01-29T19:45:08;4.80;99.90
59067;DHT22;44854;50.838;4.438;2023-01-29T19:47:40;4.80;99.90
59067;DHT22;44854;50.838;4.438;2023-01-29T19:50:07;4.80;99.90
59067;DHT22;44854;50.838;4.438;2023-01-29T19:52:32;4.80;99.90
59067;DHT22;44854;50.838;4.438;2023-01-29T19:54:59;4.70;99.90
59067;DHT22;44854;50.838;4.438;2023-01-29T19:57:25;4.70;99.90
59067;DHT22;44854;50.838;4.438;2023-01-29T19:59:50;4.60;99.90
59067;DHT22;44854;50.838;4.438;2023-01-29T20:02:16;4.80;99.90
59067;DHT22;44854;50.838;4.438;2023-01-29T20:04:41;4.80;99.90
59067;DHT22;44854;50.838;4.438;2023-01-29T20:07:07;4.60;99.90
59067;DHT22;44854;50.838;4.438;2023-01-29T20:09:33;4.80;99.90
59067;DHT22;44854;50.838;4.438;2023-01-29T20:11:59;4.70;99.90
59067;DHT22;44854;50.838;4.438;2023-01-29T20:14:24;4.50;99.90
59067;DHT22;44854;50.838;4.438;2023-01-29T20:16:50;4.50;99.90
59067;DHT22;44854;50.838;4.438;2023-01-29T20:19:15;4.60;99.90
59067;DHT22;44854;50.838;4.438;2023-01-29T20:21:41;4.70;99.90
59067;DHT22;44854;50.838;4.438;2023-01-29T20:24:10;4.70;99.90
59067;DHT22;44854;50.838;4.438;2023-01-29T20:26:35;4.70;99.90
59067;DHT22;44854;50.838;4.438;2023-01-29T20:29:01;4.70;99.90
59067;DHT22;44854;50.838;4.438;2023-01-29T20:31:26;4.80;99.90
59067;DHT22;44854;50.838;4.438;2023-01-29T20:33:52;4.80;99.90
59067;DHT22;44854;50.838;4.438;2023-01-29T20:36:18;4.80;99.90
59067;DHT22;44854;50.838;4.438;2023-01-29T20:38:43;4.70;99.90
59067;DHT22;44854;50.838;4.438;2023-01-29T20:41:12;4.80;99.90
59067;DHT22;44854;50.838;4.438;2023-01-29T20:43:38;4.80;99.90
59067;DHT22;44854;50.838;4.438;2023-01-29T20:46:04;4.90;99.90
59067;DHT22;44854;50.838;4.438;2023-01-29T20:48:30;5.00;99.90
59067;DHT22;44854;50.838;4.438;2023-01-29T20:50:55;4.90;99.90
59067;DHT22;44854;50.838;4.438;2023-01-29T20:53:21;4.70;99.90
59067;DHT22;44854;50.838;4.438;2023-01-29T20:55:47;4.70;99.90
59067;DHT22;44854;50.838;4.438;2023-01-29T20:58:12;4.80;99.90
59067;DHT22;44854;50.838;4.438;2023-01-29T21:00:38;4.70;99.90
59067;DHT22;44854;50.838;4.438;2023-01-29T21:03:04;4.70;99.90
59067;DHT22;44854;50.838;4.438;2023-01-29T21:05:29;4.80;99.90
59067;DHT22;44854;50.838;4.438;2023-01-29T21:07:55;4.90;99.90
59067;DHT22;44854;50.838;4.438;2023-01-29T21:10:20;5.00;99.90
59067;DHT22;44854;50.838;4.438;2023-01-29T21:12:46;5.10;99.90
59067;DHT22;44854;50.838;4.438;2023-01-29T21:15:11;5.10;99.90
59067;DHT22;44854;50.838;4.438;2023-01-29T21:17:37;5.10;99.90
59067;DHT22;44854;50.838;4.438;2023-01-29T21:20:03;5.20;99.90
59067;DHT22;44854;50.838;4.438;2023-01-29T21:22:29;5.10;99.90
59067;DHT22;44854;50.838;4.438;2023-01-29T21:24:54;5.10;99.90
59067;DHT22;44854;50.838;4.438;2023-01-29T21:27:20;5.10;99.90
59067;DHT22;44854;50.838;4.438;2023-01-29T21:29:45;5.10;99.90
59067;DHT22;44854;50.838;4.438;2023-01-29T21:32:12;5.20;99.90
59067;DHT22;44854;50.838;4.438;2023-01-29T21:34:40;5.30;99.90
59067;DHT22;44854;50.838;4.438;2023-01-29T21:37:06;5.30;99.90
59067;DHT22;44854;50.838;4.438;2023-01-29T21:39:33;5.30;99.90
59067;DHT22;44854;50.838;4.438;2023-01-29T21:41:59;5.30;99.90
59067;DHT22;44854;50.838;4.438;2023-01-29T21:44:43;5.20;99.90
59067;DHT22;44854;50.838;4.438;2023-01-29T21:47:08;5.20;99.90
59067;DHT22;44854;50.838;4.438;2023-01-29T21:49:40;5.20;99.90
59067;DHT22;44854;50.838;4.438;2023-01-29T21:52:06;5.20;99.90
59067;DHT22;44854;50.838;4.438;2023-01-29T21:54:31;5.20;99.90
59067;DHT22;44854;50.838;4.438;2023-01-29T21:57:02;5.30;99.90
59067;DHT22;44854;50.838;4.438;2023-01-29T21:59:31;5.30;99.90
59067;DHT22;44854;50.838;4.438;2023-01-29T22:01:57;5.30;99.90
59067;DHT22;44854;50.838;4.438;2023-01-29T22:04:23;5.20;99.90
59067;DHT22;44854;50.838;4.438;2023-01-29T22:06:49;5.30;99.90
59067;DHT22;44854;50.838;4.438;2023-01-29T22:09:14;5.30;99.90
59067;DHT22;44854;50.838;4.438;2023-01-29T22:11:40;5.40;99.90
59067;DHT22;44854;50.838;4.438;2023-01-29T22:14:06;5.30;99.90
59067;DHT22;44854;50.838;4.438;2023-01-29T22:16:31;5.40;99.90
59067;DHT22;44854;50.838;4.438;2023-01-29T22:18:57;5.40;99.90
59067;DHT22;44854;50.838;4.438;2023-01-29T22:21:23;5.40;99.90
59067;DHT22;44854;50.838;4.438;2023-01-29T22:23:49;5.50;99.90
59067;DHT22;44854;50.838;4.438;2023-01-29T22:26:15;5.50;99.90
59067;DHT22;44854;50.838;4.438;2023-01-29T22:28:40;5.60;99.90
59067;DHT22;44854;50.838;4.438;2023-01-29T22:31:06;5.50;99.90
59067;DHT22;44854;50.838;4.438;2023-01-29T22:33:32;5.50;99.90
59067;DHT22;44854;50.838;4.438;2023-01-29T22:35:57;5.60;99.90
59067;DHT22;44854;50.838;4.438;2023-01-29T22:38:23;5.50;99.90
59067;DHT22;44854;50.838;4.438;2023-01-29T22:40:52;5.50;99.90
59067;DHT22;44854;50.838;4.438;2023-01-29T22:43:18;5.50;99.90
59067;DHT22;44854;50.838;4.438;2023-01-29T22:45:44;5.50;99.90
59067;DHT22;44854;50.838;4.438;2023-01-29T22:48:10;5.60;99.90
59067;DHT22;44854;50.838;4.438;2023-01-29T22:50:36;5.60;99.90
